Time;durP1;ratioP1;P1;durP2;ratioP2;P2;SDS_P1;SDS_P2;PMS_P1;PMS_P2;Temp;Humidity;BMP_temperature;BMP_pressure;BME280_temperature;BME280_humidity;BME280_pressure;Samples;Min_cycle;Max_cycle;Signal;HPM_P1;HPM_P2
2022/10/19 00:01:22;;;;;;;7.38;2.30;;;8.90;99.90;;;;;;5070763;28;20091;-85
2022/10/19 00:03:50;;;;;;;10.85;2.40;;;9.60;99.90;;;;;;5068694;28;20048;-85
2022/10/19 00:06:24;;;;;;;9.70;2.47;;;8.70;99.90;;;;;;5070121;28;20051;-85
2022/10/19 00:08:51;;;;;;;10.03;2.90;;;8.70;99.90;;;;;;5072178;28;20373;-85
2022/10/19 00:11:17;;;;;;;13.65;2.83;;;8.60;99.90;;;;;;5071094;28;20055;-85
2022/10/19 00:13:43;;;;;;;7.20;2.30;;;8.60;99.90;;;;;;5073205;28;20048;-85
2022/10/19 00:16:12;;;;;;;10.35;2.50;;;8.50;99.90;;;;;;5074185;28;20506;-85
2022/10/19 00:18:40;;;;;;;8.23;2.30;;;8.40;99.90;;;;;;5074140;28;20094;-85
2022/10/19 00:21:08;;;;;;;9.47;2.40;;;8.90;99.90;;;;;;5074835;28;20044;-85
2022/10/19 00:23:34;;;;;;;11.30;2.70;;;8.30;99.90;;;;;;5075321;28;20036;-85
2022/10/19 00:26:00;;;;;;;9.53;2.53;;;8.20;99.90;;;;;;5073805;28;20110;-85
2022/10/19 00:28:26;;;;;;;11.80;2.80;;;8.20;99.90;;;;;;5072968;28;20550;-85
2022/10/19 00:30:51;;;;;;;10.13;2.50;;;8.10;99.90;;;;;;5075512;28;20072;-85
2022/10/19 00:33:20;;;;;;;11.33;2.50;;;8.80;99.90;;;;;;5075089;28;20036;-85
2022/10/19 00:35:48;;;;;;;11.57;2.50;;;8.10;99.90;;;;;;5073242;28;20082;-84
2022/10/19 00:38:15;;;;;;;7.00;2.40;;;8.10;99.90;;;;;;5074845;28;20065;-85
2022/10/19 00:40:41;;;;;;;9.80;2.70;;;9.10;99.90;;;;;;5073806;28;20396;-85
2022/10/19 00:43:18;;;;;;;9.17;2.60;;;8.00;99.90;;;;;;5072600;28;20052;-85
2022/10/19 00:45:44;;;;;;;9.83;2.40;;;8.00;99.90;;;;;;5074918;28;20040;-85
2022/10/19 00:48:14;;;;;;;7.43;2.50;;;8.00;99.90;;;;;;5073513;28;20426;-85
2022/10/19 00:50:41;;;;;;;9.73;2.50;;;8.00;99.90;;;;;;5074331;28;20055;-85
2022/10/19 00:53:07;;;;;;;10.20;2.70;;;8.00;99.90;;;;;;5073247;28;20088;-85
2022/10/19 00:55:33;;;;;;;8.30;2.47;;;8.00;99.90;;;;;;5073019;28;20047;-85
2022/10/19 00:58:01;;;;;;;10.80;2.90;;;8.00;99.90;;;;;;5074630;28;20048;-85
2022/10/19 01:00:30;;;;;;;10.05;2.50;;;8.00;99.90;;;;;;5073432;28;20573;-85
2022/10/19 01:02:57;;;;;;;10.50;2.67;;;8.00;99.90;;;;;;5072324;28;20040;-84
2022/10/19 01:05:24;;;;;;;9.37;2.40;;;8.00;99.90;;;;;;5074312;28;20128;-85
2022/10/19 01:07:50;;;;;;;12.40;2.93;;;8.00;99.90;;;;;;5074501;28;20063;-85
2022/10/19 01:10:16;;;;;;;11.63;3.00;;;8.10;99.90;;;;;;5071953;28;20488;-85
2022/10/19 01:13:10;;;;;;;8.73;2.60;;;8.10;99.90;;;;;;5073059;28;20048;-85
2022/10/19 01:15:59;;;;;;;;;;;8.10;99.90;;;;;;5072783;28;20052;-85
2022/10/19 01:18:52;;;;;;;9.47;2.87;;;8.20;99.90;;;;;;5071747;28;20330;-85
2022/10/19 01:21:22;;;;;;;10.87;3.33;;;8.20;99.90;;;;;;5072841;28;20047;-85
2022/10/19 01:23:50;;;;;;;10.13;2.80;;;8.20;99.90;;;;;;5073162;28;20041;-85
2022/10/19 01:26:51;;;;;;;10.77;2.77;;;8.30;99.90;;;;;;5071293;28;20056;-86
2022/10/19 01:29:35;;;;;;;10.33;2.83;;;8.30;99.90;;;;;;5074199;28;20036;-84
2022/10/19 01:32:09;;;;;;;10.93;3.42;;;8.30;99.90;;;;;;5072441;28;20055;-85
2022/10/19 01:34:41;;;;;;;;;;;9.60;99.90;;;;;;5075065;28;20089;-85
2022/10/19 01:37:40;;;;;;;8.23;2.97;;;8.50;99.90;;;;;;5073528;28;20333;-85
2022/10/19 01:40:32;;;;;;;8.73;2.87;;;8.50;99.90;;;;;;5073384;28;20079;-85
2022/10/19 01:43:20;;;;;;;11.50;2.83;;;8.50;99.90;;;;;;5072723;28;20040;-85
2022/10/19 01:45:59;;;;;;;10.53;3.17;;;8.60;99.90;;;;;;5071764;28;20044;-85
2022/10/19 01:48:29;;;;;;;11.63;2.93;;;8.70;99.90;;;;;;5072203;28;20075;-85
2022/10/19 01:51:06;;;;;;;11.83;3.17;;;8.90;99.90;;;;;;5073367;28;20550;-85
2022/10/19 01:53:38;;;;;;;9.57;2.90;;;8.80;99.90;;;;;;5073051;28;20115;-85
2022/10/19 01:56:05;;;;;;;12.20;3.10;;;8.80;99.90;;;;;;5071986;28;20073;-85
2022/10/19 01:58:34;;;;;;;8.63;2.83;;;8.90;99.90;;;;;;5073385;28;20416;-85
2022/10/19 02:01:04;;;;;;;11.03;2.70;;;9.10;99.90;;;;;;5071151;28;20040;-85
2022/10/19 02:03:30;;;;;;;12.43;3.30;;;9.00;99.90;;;;;;5071385;28;20048;-85
2022/10/19 02:05:57;;;;;;;10.70;2.90;;;9.00;99.90;;;;;;5071086;28;20043;-85
2022/10/19 02:08:43;;;;;;;11.23;3.13;;;9.10;99.90;;;;;;5072519;28;20053;-85
2022/10/19 02:11:08;;;;;;;14.55;3.42;;;9.10;99.90;;;;;;5071370;28;20468;-85
2022/10/19 02:13:36;;;;;;;11.87;2.90;;;9.10;99.90;;;;;;5072324;28;20525;-85
2022/10/19 02:16:06;;;;;;;11.50;2.80;;;9.20;99.90;;;;;;5073033;28;20477;-85
2022/10/19 02:18:38;;;;;;;9.60;2.80;;;9.10;99.90;;;;;;5071604;28;20048;-85
2022/10/19 02:21:08;;;;;;;11.93;2.80;;;9.80;99.90;;;;;;5071071;28;20559;-85
2022/10/19 02:23:34;;;;;;;10.10;2.65;;;9.20;99.90;;;;;;5073068;28;20438;-85
2022/10/19 02:26:00;;;;;;;11.52;2.65;;;9.30;99.90;;;;;;5071686;28;20484;-85
2022/10/19 02:28:26;;;;;;;10.73;3.00;;;9.30;99.90;;;;;;5070534;28;20067;-85
2022/10/19 02:31:10;;;;;;;14.25;3.17;;;9.40;99.90;;;;;;5071372;28;20048;-85
2022/10/19 02:33:36;;;;;;;11.68;3.10;;;9.30;99.90;;;;;;5072863;28;20064;-85
2022/10/19 02:36:02;;;;;;;10.05;2.90;;;9.30;99.90;;;;;;5071687;28;20496;-85
2022/10/19 02:38:28;;;;;;;12.00;3.00;;;9.30;99.90;;;;;;5072645;28;20085;-85
2022/10/19 02:41:30;;;;;;;8.30;2.38;;;9.30;99.90;;;;;;5071386;28;20131;-85
2022/10/19 02:44:02;;;;;;;10.82;2.78;;;9.30;99.90;;;;;;5066099;28;20113;-85
2022/10/19 02:46:39;;;;;;;7.50;2.47;;;9.30;99.90;;;;;;5071362;28;20045;-85
2022/10/19 02:49:08;;;;;;;11.07;2.83;;;9.30;99.90;;;;;;5070629;28;20090;-85
2022/10/19 02:51:45;;;;;;;11.40;2.72;;;9.30;99.90;;;;;;5071640;28;20136;-85
2022/10/19 02:54:11;;;;;;;10.13;2.72;;;10.40;99.90;;;;;;5072304;28;20135;-85
2022/10/19 02:56:37;;;;;;;13.30;3.17;;;10.10;99.90;;;;;;5070762;28;20136;-85
2022/10/19 02:59:09;;;;;;;11.10;2.38;;;9.30;99.90;;;;;;5070894;28;20045;-85
2022/10/19 03:01:34;;;;;;;11.15;2.50;;;9.70;99.90;;;;;;5072427;28;20551;-85
2022/10/19 03:04:00;;;;;;;10.18;2.60;;;9.40;99.90;;;;;;5070420;28;20132;-85
2022/10/19 03:09:16;;;;;;;9.05;2.35;;;9.20;99.90;;;;;;5050652;26;20393;-85
2022/10/19 03:11:42;;;;;;;10.98;2.38;;;9.20;99.90;;;;;;5051003;28;20044;-85
2022/10/19 03:14:45;;;;;;;8.00;2.15;;;9.20;99.90;;;;;;5051961;28;20056;-85
2022/10/19 03:21:01;;;;;;;9.88;2.60;;;9.20;99.90;;;;;;5052088;28;20090;-85
2022/10/19 03:23:26;;;;;;;11.15;2.50;;;8.90;99.90;;;;;;5051241;28;20519;-85
2022/10/19 03:32:55;;;;;;;9.68;2.10;;;9.20;99.90;;;;;;5051972;28;20118;-85
2022/10/19 03:35:24;;;;;;;9.20;2.55;;;8.60;99.90;;;;;;5050800;28;20072;-85
2022/10/19 03:37:55;;;;;;;10.82;2.50;;;10.30;99.90;;;;;;5050604;28;20052;-85
2022/10/19 03:40:21;;;;;;;10.32;1.90;;;9.00;99.90;;;;;;5120058;22;20389;-85
2022/10/19 03:43:37;;;;;;;9.30;2.30;;;9.00;99.90;;;;;;5070976;28;20052;-85
2022/10/19 03:46:06;;;;;;;8.70;2.20;;;8.90;99.90;;;;;;5069729;28;20052;-85
2022/10/19 03:48:56;;;;;;;11.33;2.53;;;8.60;99.90;;;;;;5072907;28;20049;-85
2022/10/19 03:51:29;;;;;;;9.67;2.10;;;8.80;99.90;;;;;;5076189;28;20044;-85
2022/10/19 03:54:02;;;;;;;10.32;2.30;;;9.00;99.90;;;;;;5077250;28;20102;-85
2022/10/19 03:56:30;;;;;;;9.32;2.40;;;8.50;99.90;;;;;;5074580;28;20388;-85
2022/10/19 03:58:57;;;;;;;12.47;2.30;;;8.50;99.90;;;;;;5075594;28;20036;-85
2022/10/19 04:01:26;;;;;;;8.57;2.47;;;8.40;99.90;;;;;;5068619;28;20433;-85
2022/10/19 04:03:56;;;;;;;10.53;2.30;;;8.40;99.90;;;;;;5080803;22;20139;-85
2022/10/19 04:06:31;;;;;;;9.30;2.10;;;8.40;99.90;;;;;;5055570;28;20055;-85
2022/10/19 04:08:58;;;;;;;10.27;2.50;;;8.40;99.90;;;;;;5075440;28;20408;-85
2022/10/19 04:11:26;;;;;;;8.63;2.37;;;8.40;99.90;;;;;;5075500;28;20112;-85
2022/10/19 04:13:52;;;;;;;10.53;2.30;;;8.40;99.90;;;;;;5075203;28;20036;-85
2022/10/19 04:16:20;;;;;;;10.03;2.37;;;8.40;99.90;;;;;;5075635;28;20054;-85
2022/10/19 04:18:45;;;;;;;9.03;2.30;;;8.40;99.90;;;;;;5057478;28;20036;-85
2022/10/19 04:21:32;;;;;;;10.95;2.40;;;8.40;99.90;;;;;;5074384;28;20045;-86
2022/10/19 04:24:01;;;;;;;9.33;2.67;;;8.50;99.90;;;;;;5075945;28;20119;-85
2022/10/19 04:26:30;;;;;;;9.90;2.65;;;8.50;99.90;;;;;;5078336;22;20056;-85
2022/10/19 04:28:57;;;;;;;12.10;2.70;;;8.50;99.90;;;;;;5075173;28;20040;-85
2022/10/19 04:31:26;;;;;;;13.07;2.57;;;8.50;99.90;;;;;;5073454;28;20056;-85
2022/10/19 04:33:51;;;;;;;9.47;2.50;;;8.40;99.90;;;;;;5073142;28;20041;-85
2022/10/19 04:36:17;;;;;;;11.65;2.67;;;8.90;99.90;;;;;;5074995;28;20048;-85
2022/10/19 04:38:43;;;;;;;9.60;2.70;;;8.40;99.90;;;;;;5074117;28;20568;-85
2022/10/19 04:41:14;;;;;;;9.83;2.40;;;8.50;99.90;;;;;;5072739;28;20051;-86
2022/10/19 04:43:40;;;;;;;9.47;2.70;;;8.40;99.90;;;;;;5074190;28;20135;-86
2022/10/19 04:46:17;;;;;;;8.13;2.10;;;8.50;99.90;;;;;;5073758;28;20052;-85
2022/10/19 04:48:45;;;;;;;9.27;2.40;;;8.50;99.90;;;;;;5072784;28;20152;-86
2022/10/19 04:51:11;;;;;;;9.10;2.30;;;8.50;99.90;;;;;;5073747;28;20053;-85
2022/10/19 04:53:41;;;;;;;8.98;2.40;;;8.50;99.90;;;;;;5075121;28;20041;-85
2022/10/19 04:56:37;;;;;;;9.90;2.13;;;8.50;99.90;;;;;;5077769;22;20044;-85
2022/10/19 04:59:29;;;;;;;9.98;2.10;;;8.60;99.90;;;;;;5073985;28;20528;-85
2022/10/19 05:02:09;;;;;;;8.67;2.20;;;8.40;99.90;;;;;;5073684;28;20040;-85
2022/10/19 05:04:47;;;;;;;14.95;2.40;;;7.30;99.90;;;;;;5057141;28;20045;-85
2022/10/19 05:07:31;;;;;;;7.63;2.27;;;8.40;99.90;;;;;;5074073;28;20041;-85
2022/10/19 05:09:57;;;;;;;11.63;2.38;;;8.70;99.90;;;;;;5055782;28;20072;-85
2022/10/19 05:12:33;;;;;;;9.43;2.60;;;8.60;99.90;;;;;;5074123;28;20071;-85
2022/10/19 05:15:02;;;;;;;9.77;2.00;;;8.60;99.90;;;;;;5056502;28;20131;-85
2022/10/19 05:17:43;;;;;;;8.02;2.13;;;8.50;99.90;;;;;;5055029;28;20052;-85
2022/10/19 05:20:12;;;;;;;11.25;2.25;;;8.40;99.90;;;;;;5056144;28;20090;-85
2022/10/19 05:22:38;;;;;;;9.50;2.20;;;8.50;99.90;;;;;;5055881;28;20127;-85
2022/10/19 05:25:05;;;;;;;10.23;2.08;;;8.50;99.90;;;;;;5073574;28;20438;-85
2022/10/19 05:27:31;;;;;;;10.57;2.40;;;8.40;99.90;;;;;;5055774;28;20138;-85
2022/10/19 05:29:57;;;;;;;7.70;2.20;;;8.40;99.90;;;;;;5073061;28;20044;-85
2022/10/19 05:32:22;;;;;;;8.82;2.20;;;8.40;99.90;;;;;;5073542;28;20076;-85
2022/10/19 05:34:48;;;;;;;10.47;2.30;;;8.30;99.90;;;;;;5055359;28;20064;-85
2022/10/19 05:37:15;;;;;;;9.67;2.33;;;8.20;99.90;;;;;;5054673;28;20118;-86
2022/10/19 05:39:42;;;;;;;11.70;2.50;;;8.30;99.90;;;;;;5057065;28;20040;-86
2022/10/19 05:42:08;;;;;;;7.67;2.40;;;8.30;99.90;;;;;;5055825;28;20040;-85
2022/10/19 05:44:34;;;;;;;9.07;2.70;;;8.20;99.90;;;;;;5055115;28;20113;-86
2022/10/19 05:54:46;;;;;;;7.20;2.17;;;8.20;99.90;;;;;;6232082;22;20264;-85
2022/10/19 05:57:12;;;;;;;9.07;2.50;;;8.20;99.90;;;;;;5091363;28;20048;-85
2022/10/19 05:59:37;;;;;;;6.73;2.43;;;8.20;99.90;;;;;;5092929;28;20094;-85
2022/10/19 06:02:03;;;;;;;10.07;2.63;;;9.30;99.90;;;;;;5093662;28;20113;-84
2022/10/19 06:04:29;;;;;;;8.93;2.22;;;8.20;99.90;;;;;;5092371;28;20058;-84
2022/10/19 06:06:57;;;;;;;12.87;2.63;;;8.10;99.90;;;;;;5091332;28;20059;-83
2022/10/19 06:09:23;;;;;;;10.27;2.50;;;8.20;99.90;;;;;;5092048;28;20051;-83
2022/10/19 06:11:48;;;;;;;11.10;2.50;;;8.20;99.90;;;;;;5092855;28;20044;-83
2022/10/19 06:14:15;;;;;;;11.40;2.30;;;8.30;99.90;;;;;;5091065;28;20044;-84
2022/10/19 06:16:41;;;;;;;9.17;2.57;;;8.20;99.90;;;;;;5093043;28;20040;-83
2022/10/19 06:19:15;;;;;;;11.20;2.77;;;8.20;99.90;;;;;;5092485;28;20090;-85
2022/10/19 06:21:43;;;;;;;9.40;2.70;;;8.70;99.90;;;;;;5086090;22;20045;-84
2022/10/19 06:24:09;;;;;;;12.27;2.60;;;8.20;99.90;;;;;;5054697;28;20127;-84
2022/10/19 06:26:35;;;;;;;10.80;2.83;;;9.40;99.90;;;;;;5048307;28;20056;-82
2022/10/19 06:29:02;;;;;;;9.53;2.50;;;8.20;99.90;;;;;;5056501;28;20045;-83
2022/10/19 06:31:33;;;;;;;10.33;2.70;;;8.10;99.90;;;;;;5034708;28;20551;-83
2022/10/19 06:33:58;;;;;;;11.07;2.60;;;8.20;99.90;;;;;;5034020;28;20094;-83
2022/10/19 06:36:27;;;;;;;11.27;2.50;;;8.20;99.90;;;;;;5034521;28;20037;-83
2022/10/19 06:38:55;;;;;;;9.37;2.60;;;8.20;99.90;;;;;;5052705;28;20048;-83
2022/10/19 06:41:21;;;;;;;15.33;2.90;;;8.20;99.90;;;;;;5034035;28;20396;-83
2022/10/19 06:43:51;;;;;;;12.80;2.80;;;8.20;99.90;;;;;;5035113;28;20040;-83
2022/10/19 06:46:22;;;;;;;11.50;3.03;;;8.20;99.90;;;;;;5055312;28;20044;-83
2022/10/19 06:48:59;;;;;;;8.47;2.40;;;8.20;99.90;;;;;;5055610;28;20037;-83
2022/10/19 06:51:35;;;;;;;11.67;2.80;;;8.30;99.90;;;;;;5052074;28;20045;-83
2022/10/19 06:54:01;;;;;;;6.93;2.40;;;8.20;99.90;;;;;;5034728;28;20041;-83
2022/10/19 06:56:26;;;;;;;11.77;2.57;;;8.10;99.90;;;;;;5051457;28;20095;-83
2022/10/19 06:58:58;;;;;;;9.20;2.33;;;8.30;99.90;;;;;;5034771;28;20036;-83
2022/10/19 07:01:24;;;;;;;11.07;2.80;;;9.90;99.90;;;;;;5033254;28;20049;-83
2022/10/19 07:03:56;;;;;;;9.73;2.70;;;8.50;99.90;;;;;;5044188;28;20041;-83
2022/10/19 07:06:22;;;;;;;11.73;2.30;;;8.60;99.90;;;;;;5034138;28;20049;-83
2022/10/19 07:08:48;;;;;;;12.30;3.23;;;8.70;99.90;;;;;;5033666;28;20044;-84
2022/10/19 07:11:16;;;;;;;13.43;2.87;;;8.70;99.90;;;;;;5050663;28;20033;-84
2022/10/19 07:13:42;;;;;;;12.30;2.20;;;8.90;99.90;;;;;;5051864;28;20045;-84
2022/10/19 07:16:11;;;;;;;9.80;2.00;;;9.00;99.90;;;;;;5033502;28;20045;-84
2022/10/19 07:18:38;;;;;;;9.93;2.40;;;9.10;99.90;;;;;;5052212;28;20055;-84
2022/10/19 07:21:07;;;;;;;11.23;3.27;;;9.70;99.90;;;;;;5052332;28;20053;-83
2022/10/19 07:23:35;;;;;;;15.40;2.73;;;9.80;99.90;;;;;;5055267;28;20072;-83
2022/10/19 07:26:07;;;;;;;8.15;1.95;;;9.30;99.90;;;;;;5050578;28;20048;-83
2022/10/19 07:28:33;;;;;;;11.93;2.40;;;9.40;99.90;;;;;;5058500;28;20044;-83
2022/10/19 07:31:05;;;;;;;9.57;2.40;;;9.40;99.90;;;;;;5075541;28;20056;-83
2022/10/19 07:33:30;;;;;;;11.93;2.47;;;9.60;99.90;;;;;;5058310;28;20044;-83
2022/10/19 07:36:02;;;;;;;15.20;2.70;;;9.60;99.90;;;;;;5076383;28;20045;-83
2022/10/19 07:38:29;;;;;;;9.90;2.17;;;9.70;99.90;;;;;;5075390;28;20051;-83
2022/10/19 07:41:00;;;;;;;11.02;2.28;;;9.80;99.90;;;;;;5057070;28;20040;-83
2022/10/19 07:43:26;;;;;;;13.90;2.10;;;9.90;99.90;;;;;;5040062;28;20056;-83
2022/10/19 07:45:57;;;;;;;11.43;2.20;;;9.90;99.90;;;;;;5055604;28;20044;-81
2022/10/19 07:48:23;;;;;;;12.63;2.30;;;10.10;99.90;;;;;;5055142;28;20055;-83
2022/10/19 07:50:48;;;;;;;10.25;2.35;;;10.20;99.90;;;;;;5036498;28;20037;-83
2022/10/19 07:53:14;;;;;;;9.80;2.10;;;10.30;99.90;;;;;;5061605;28;20045;-83
2022/10/19 07:55:40;;;;;;;12.20;2.03;;;10.70;99.90;;;;;;5037646;28;20033;-82
2022/10/19 07:58:05;;;;;;;11.63;2.10;;;10.40;99.90;;;;;;5039953;28;20045;-83
2022/10/19 08:00:31;;;;;;;8.90;2.20;;;10.50;99.90;;;;;;5068031;28;20063;-82
2022/10/19 08:02:57;;;;;;;9.60;2.20;;;11.80;99.90;;;;;;5057080;28;20040;-83
2022/10/19 08:05:23;;;;;;;10.80;2.22;;;11.60;99.90;;;;;;5074722;28;20396;-82
2022/10/19 08:07:48;;;;;;;10.93;2.40;;;10.70;99.90;;;;;;5057471;28;20094;-82
2022/10/19 08:10:14;;;;;;;15.90;3.45;;;10.90;99.90;;;;;;5059366;28;20075;-82
2022/10/19 08:12:39;;;;;;;11.95;2.45;;;11.90;99.90;;;;;;5054541;28;20083;-82
2022/10/19 08:15:31;;;;;;;9.52;2.38;;;10.90;99.90;;;;;;5201650;22;20040;-82
2022/10/19 08:17:57;;;;;;;8.40;2.13;;;11.00;99.90;;;;;;5117854;27;20403;-83
2022/10/19 08:20:25;;;;;;;10.88;2.40;;;11.70;99.90;;;;;;5292625;22;20058;-83
2022/10/19 08:22:51;;;;;;;11.32;2.42;;;11.20;99.90;;;;;;5077241;28;20059;-83
2022/10/19 08:25:17;;;;;;;10.40;2.08;;;11.20;99.90;;;;;;5076640;28;20669;-82
2022/10/19 08:27:42;;;;;;;12.48;2.10;;;11.20;99.90;;;;;;5076474;28;20127;-82
2022/10/19 08:30:08;;;;;;;11.95;2.63;;;11.30;99.90;;;;;;5095663;28;20044;-82
2022/10/19 08:32:34;;;;;;;10.02;2.08;;;11.40;99.90;;;;;;5095617;28;20467;-82
2022/10/19 08:34:59;;;;;;;10.68;1.98;;;11.50;99.90;;;;;;5075679;28;20044;-82
2022/10/19 08:37:25;;;;;;;9.38;1.98;;;11.50;99.90;;;;;;5095283;28;20428;-82
2022/10/19 08:39:50;;;;;;;12.30;2.42;;;11.50;99.90;;;;;;5075826;28;20050;-83
2022/10/19 08:42:22;;;;;;;12.70;2.10;;;11.60;99.90;;;;;;5095255;28;20409;-82
2022/10/19 08:45:20;;;;;;;10.93;2.10;;;11.70;99.90;;;;;;5077235;28;20207;-82
2022/10/19 08:48:00;;;;;;;9.35;1.80;;;11.70;99.90;;;;;;5087206;28;20048;-82
2022/10/19 08:50:40;;;;;;;13.52;1.98;;;11.80;99.90;;;;;;5094985;28;20047;-82
2022/10/19 08:53:12;;;;;;;10.45;1.95;;;11.90;99.90;;;;;;5095249;28;20051;-82
2022/10/19 08:55:56;;;;;;;10.10;1.90;;;11.90;99.90;;;;;;5094783;28;20055;-83
2022/10/19 08:58:43;;;;;;;6.32;1.40;;;12.00;99.90;;;;;;5076789;28;20052;-83
2022/10/19 09:01:37;;;;;;;9.90;1.65;;;12.00;99.90;;;;;;5094339;28;20759;-83
2022/10/19 09:04:22;;;;;;;9.73;2.05;;;12.10;99.90;;;;;;5076720;28;20101;-82
2022/10/19 09:07:17;;;;;;;8.15;1.92;;;13.00;99.90;;;;;;5076620;28;20480;-82
2022/10/19 09:09:53;;;;;;;7.63;1.67;;;12.30;99.90;;;;;;5088746;28;20044;-83
2022/10/19 09:12:52;;;;;;;10.90;2.28;;;12.30;99.90;;;;;;5076198;28;20499;-84
2022/10/19 09:18:18;;;;;;;10.43;2.08;;;12.40;99.90;;;;;;6009922;22;20044;-85
2022/10/19 09:20:46;;;;;;;11.40;2.00;;;12.50;99.90;;;;;;5094610;28;20048;-84
2022/10/19 09:23:28;;;;;;;9.07;2.10;;;12.50;99.90;;;;;;5075299;28;20044;-85
2022/10/19 09:25:56;;;;;;;11.75;1.80;;;12.60;99.90;;;;;;5094455;28;20047;-84
2022/10/19 09:28:30;;;;;;;7.50;2.00;;;13.70;99.90;;;;;;5075889;28;20050;-84
2022/10/19 09:30:57;;;;;;;8.88;1.73;;;12.70;99.90;;;;;;5075678;28;20514;-84
2022/10/19 09:33:33;;;;;;;8.82;2.08;;;13.40;99.90;;;;;;5075930;28;20052;-85
2022/10/19 09:36:01;;;;;;;7.55;1.75;;;12.70;99.90;;;;;;5076275;28;20040;-85
2022/10/19 09:38:28;;;;;;;10.02;2.25;;;13.30;99.90;;;;;;5076014;28;20508;-85
2022/10/19 09:40:57;;;;;;;8.93;1.80;;;12.90;99.90;;;;;;5076394;28;20078;-85
2022/10/19 09:43:23;;;;;;;11.13;2.10;;;12.70;99.90;;;;;;5093435;28;20072;-85
2022/10/19 09:48:58;;;;;;;7.32;1.90;;;12.10;99.90;;;;;;4975395;28;20146;-85
2022/10/19 09:51:24;;;;;;;11.02;2.00;;;12.20;99.90;;;;;;5092502;28;20445;-85
2022/10/19 09:53:54;;;;;;;7.20;1.92;;;14.00;99.90;;;;;;5076370;28;20039;-85
2022/10/19 09:56:27;;;;;;;9.90;2.08;;;13.90;99.90;;;;;;5075415;28;20071;-84
2022/10/19 09:59:00;;;;;;;9.05;2.00;;;14.10;99.90;;;;;;5075370;28;20040;-85
2022/10/19 10:01:35;;;;;;;6.85;1.77;;;13.00;99.90;;;;;;5093823;28;20135;-85
2022/10/19 10:04:23;;;;;;;10.40;2.00;;;12.90;99.90;;;;;;5093884;28;20036;-83
2022/10/19 10:07:18;;;;;;;13.02;2.15;;;13.00;99.90;;;;;;5093515;28;20551;-83
2022/10/19 10:09:45;;;;;;;9.57;1.83;;;13.90;99.90;;;;;;5094017;28;20156;-82
2022/10/19 10:12:14;;;;;;;8.70;1.67;;;13.10;99.90;;;;;;5090294;28;20036;-83
2022/10/19 10:14:40;;;;;;;9.40;2.25;;;13.10;99.90;;;;;;5066292;28;20479;-82
2022/10/19 10:17:22;;;;;;;6.63;1.90;;;13.20;99.90;;;;;;5063863;28;20082;-85
2022/10/19 10:23:35;;;;;;;8.82;1.90;;;13.10;99.90;;;;;;5114210;28;20145;-86
2022/10/19 10:26:19;;;;;;;9.43;1.98;;;12.40;99.90;;;;;;5114662;28;20051;-86
2022/10/19 10:28:56;;;;;;;;;;;12.90;99.90;;;;;;5114936;28;20075;-86
2022/10/19 10:31:28;;;;;;;5.93;1.90;;;12.90;99.90;;;;;;5113568;28;20014;-86
2022/10/19 10:34:04;;;;;;;10.35;1.70;;;13.80;99.90;;;;;;5111308;28;20047;-86
2022/10/19 10:36:31;;;;;;;9.68;1.98;;;14.60;99.90;;;;;;5111997;28;20043;-86
2022/10/19 10:39:13;;;;;;;11.77;1.70;;;14.20;99.90;;;;;;5112050;28;20478;-84
2022/10/19 10:41:42;;;;;;;7.93;1.80;;;13.40;99.90;;;;;;5105658;22;20150;-83
2022/10/19 10:44:18;;;;;;;7.85;1.90;;;13.40;99.90;;;;;;5074547;28;20050;-84
2022/10/19 10:46:57;;;;;;;8.85;1.75;;;13.40;99.90;;;;;;5074366;28;20434;-83
2022/10/19 10:49:28;;;;;;;10.52;1.83;;;13.50;99.90;;;;;;5073523;28;20413;-83
2022/10/19 10:51:58;;;;;;;9.55;1.77;;;13.40;99.90;;;;;;5066555;28;20040;-83
2022/10/19 10:54:29;;;;;;;10.23;1.85;;;13.50;99.90;;;;;;5064110;28;20555;-85
2022/10/19 10:57:22;;;;;;;8.95;1.70;;;13.40;99.90;;;;;;5202937;22;20047;-83
2022/10/19 10:59:58;;;;;;;9.65;2.00;;;13.30;99.90;;;;;;5123759;27;20499;-86
2022/10/19 11:02:52;;;;;;;9.27;2.30;;;13.20;99.90;;;;;;5112758;28;20046;-84
2022/10/19 11:05:28;;;;;;;11.13;2.13;;;13.20;99.90;;;;;;5092923;28;20746;-84
2022/10/19 11:08:19;;;;;;;7.82;1.63;;;13.40;99.90;;;;;;5076287;28;20108;-84
2022/10/19 11:11:05;;;;;;;8.98;1.90;;;13.50;99.90;;;;;;5094212;28;20147;-84
2022/10/19 11:14:05;;;;;;;8.70;1.80;;;13.50;99.90;;;;;;5094863;28;20046;-84
2022/10/19 11:16:37;;;;;;;10.38;2.03;;;13.60;99.90;;;;;;5093832;28;20127;-84
2022/10/19 11:19:26;;;;;;;9.63;1.77;;;13.70;99.90;;;;;;5094903;28;20399;-84
2022/10/19 11:22:42;;;;;;;8.88;2.25;;;13.80;99.90;;;;;;5093995;28;20039;-84
2022/10/19 11:25:46;;;;;;;9.20;1.90;;;13.90;99.90;;;;;;5060657;28;20448;-84
2022/10/19 11:28:27;;;;;;;8.27;2.22;;;13.90;99.90;;;;;;5094557;28;20044;-84
2022/10/19 11:31:24;;;;;;;8.20;1.90;;;13.90;99.90;;;;;;5094109;28;20506;-84
2022/10/19 11:33:59;;;;;;;9.02;2.10;;;14.00;99.90;;;;;;5068813;28;20051;-83
2022/10/19 11:36:55;;;;;;;9.18;2.20;;;13.90;99.90;;;;;;5131976;28;20067;-83
2022/10/19 11:39:42;;;;;;;10.48;2.40;;;13.70;99.90;;;;;;5123495;28;20031;-83
2022/10/19 11:42:22;;;;;;;11.32;2.40;;;13.60;99.90;;;;;;5112826;28;20039;-84
2022/10/19 11:44:53;;;;;;;9.15;2.20;;;13.70;99.90;;;;;;5131760;28;20047;-84
2022/10/19 11:47:22;;;;;;;10.68;2.10;;;13.50;99.90;;;;;;5131898;28;20100;-83
2022/10/19 11:50:02;;;;;;;10.20;2.35;;;14.30;99.90;;;;;;5132239;28;20409;-83
2022/10/19 11:52:53;;;;;;;10.35;2.22;;;14.30;99.90;;;;;;5108066;28;20038;-83
2022/10/19 11:55:52;;;;;;;11.73;2.10;;;13.70;99.90;;;;;;5094432;28;20485;-83
2022/10/19 11:58:29;;;;;;;9.82;2.50;;;14.00;99.90;;;;;;5089368;28;20047;-83
2022/10/19 12:01:17;;;;;;;12.57;2.70;;;14.10;99.90;;;;;;5092344;28;20044;-83
2022/10/19 12:04:11;;;;;;;11.55;2.30;;;14.10;99.90;;;;;;5090953;28;20560;-83
2022/10/19 12:06:40;;;;;;;11.82;2.75;;;14.10;99.90;;;;;;5091823;28;20492;-83
2022/10/19 12:09:32;;;;;;;7.95;2.40;;;14.10;99.90;;;;;;5091181;28;20055;-83
2022/10/19 12:12:17;;;;;;;9.75;2.58;;;13.70;99.90;;;;;;5106351;22;20089;-83
2022/10/19 12:14:51;;;;;;;11.75;2.50;;;13.10;99.90;;;;;;5116082;28;20126;-83
2022/10/19 12:17:34;;;;;;;10.32;3.00;;;14.80;99.90;;;;;;5115942;28;20044;-83
2022/10/19 12:20:22;;;;;;;9.05;2.60;;;13.80;99.90;;;;;;5113654;28;20066;-84
2022/10/19 12:22:49;;;;;;;11.98;2.95;;;13.90;99.90;;;;;;5114737;28;20059;-83
2022/10/19 12:25:17;;;;;;;9.38;2.50;;;13.80;99.90;;;;;;5113830;28;20078;-84
2022/10/19 12:27:50;;;;;;;6.47;2.08;;;14.50;99.90;;;;;;5114773;28;20177;-84
2022/10/19 12:30:31;;;;;;;14.18;2.95;;;13.80;99.90;;;;;;5114797;28;20048;-83
2022/10/19 12:33:22;;;;;;;10.30;2.85;;;13.30;99.90;;;;;;5115391;28;20043;-82
2022/10/19 12:36:15;;;;;;;8.30;2.55;;;14.20;99.90;;;;;;5115008;28;20047;-84
2022/10/19 12:39:08;;;;;;;10.10;2.50;;;13.70;99.90;;;;;;5063832;28;20056;-84
2022/10/19 12:41:58;;;;;;;9.63;2.50;;;13.50;99.90;;;;;;5114527;28;20304;-84
2022/10/19 12:44:30;;;;;;;9.60;2.70;;;13.40;99.90;;;;;;5113948;28;20128;-83
2022/10/19 12:47:05;;;;;;;9.85;2.60;;;13.50;99.90;;;;;;5113636;28;20138;-83
2022/10/19 12:49:37;;;;;;;8.25;2.90;;;13.40;99.90;;;;;;5114282;28;20383;-85
2022/10/19 12:52:06;;;;;;;10.40;3.00;;;14.20;99.90;;;;;;5116558;28;20084;-83
2022/10/19 12:54:35;;;;;;;10.40;3.10;;;13.50;99.90;;;;;;5115063;28;20043;-82
2022/10/19 12:57:19;;;;;;;9.57;2.75;;;13.90;99.90;;;;;;5115749;28;20410;-82
2022/10/19 12:59:45;;;;;;;11.55;2.92;;;13.70;99.90;;;;;;5114344;28;20050;-83
2022/10/19 13:02:27;;;;;;;10.52;2.90;;;13.70;99.90;;;;;;5113062;28;20044;-83
2022/10/19 13:04:56;;;;;;;10.38;3.33;;;13.80;99.90;;;;;;5114587;28;20044;-82
2022/10/19 13:07:25;;;;;;;10.02;2.97;;;13.90;99.90;;;;;;5112861;28;20041;-82
2022/10/19 13:10:00;;;;;;;10.93;3.38;;;13.90;99.90;;;;;;5115315;28;20046;-83
2022/10/19 13:12:27;;;;;;;12.02;2.88;;;13.90;99.90;;;;;;5113804;28;20063;-82
2022/10/19 13:15:03;;;;;;;9.77;2.70;;;14.60;99.90;;;;;;5114299;28;20130;-82
2022/10/19 13:17:45;;;;;;;9.02;2.92;;;13.90;99.90;;;;;;5113620;28;20043;-81
2022/10/19 13:20:13;;;;;;;11.27;3.25;;;14.80;99.90;;;;;;5113201;28;20096;-83
2022/10/19 13:23:02;;;;;;;11.05;3.13;;;13.60;99.90;;;;;;5113133;28;20082;-82
2022/10/19 13:25:35;;;;;;;9.13;3.60;;;13.40;99.90;;;;;;5114962;28;20075;-83
2022/10/19 13:28:09;;;;;;;9.32;3.40;;;13.30;99.90;;;;;;5114191;28;20051;-82
2022/10/19 13:30:38;;;;;;;11.63;3.60;;;13.30;99.90;;;;;;5114818;28;20054;-81
2022/10/19 13:33:27;;;;;;;8.82;3.17;;;13.80;99.90;;;;;;5114850;28;20043;-82
2022/10/19 13:35:58;;;;;;;10.77;3.58;;;13.40;99.90;;;;;;5110533;22;20061;-81
2022/10/19 13:38:36;;;;;;;10.10;3.50;;;13.40;99.90;;;;;;5075858;28;20048;-81
2022/10/19 13:41:12;;;;;;;10.38;3.58;;;13.50;99.90;;;;;;5094303;28;20051;-81
2022/10/19 13:44:00;;;;;;;8.77;3.35;;;13.50;99.90;;;;;;5093811;28;20040;-81
2022/10/19 13:46:28;;;;;;;9.68;3.53;;;14.30;99.90;;;;;;5093911;28;20047;-82
2022/10/19 13:49:00;;;;;;;13.00;3.90;;;14.80;99.90;;;;;;5094253;28;20047;-81
2022/10/19 13:52:05;;;;;;;11.10;4.28;;;13.60;99.90;;;;;;5075077;28;20128;-82